createdAt,value
2019-04-11T00:00:33.319Z,5.51
2019-04-11T00:03:03.103Z,5.42
2019-04-11T00:05:32.812Z,5.36
2019-04-11T00:08:02.230Z,5.35
2019-04-11T00:10:31.745Z,5.38
2019-04-11T00:13:08.880Z,5.28
2019-04-11T00:15:32.820Z,5.33
2019-04-11T00:18:02.795Z,5.41
2019-04-11T00:20:32.439Z,5.26
2019-04-11T00:23:01.916Z,5.24
2019-04-11T00:25:31.729Z,5.33
2019-04-11T00:28:01.652Z,5.19
2019-04-11T00:30:32.293Z,5.12
2019-04-11T00:33:02.235Z,5.17
2019-04-11T00:35:31.825Z,5.17
2019-04-11T00:38:01.461Z,5.14
2019-04-11T00:40:31.200Z,5.08
2019-04-11T00:43:01.081Z,5.21
2019-04-11T00:45:31.742Z,5.23
2019-04-11T00:48:01.658Z,5.06
2019-04-11T00:50:31.633Z,4.94
2019-04-11T00:53:01.513Z,4.99
2019-04-11T00:55:31.439Z,4.91
2019-04-11T00:58:01.398Z,4.95
2019-04-11T01:00:31.285Z,4.86
2019-04-11T01:03:02.046Z,4.78
2019-04-11T01:05:32.149Z,4.84
2019-04-11T01:08:01.694Z,4.77
2019-04-11T01:10:32.027Z,4.64
2019-04-11T01:13:01.551Z,4.61
2019-04-11T01:15:31.478Z,4.68
2019-04-11T01:18:01.483Z,4.68
2019-04-11T01:20:31.406Z,4.55
2019-04-11T01:23:01.050Z,4.49
2019-04-11T01:25:30.720Z,4.49
2019-04-11T01:28:00.556Z,4.43
2019-04-11T01:30:33.699Z,4.38
2019-04-11T01:33:04.504Z,4.33
2019-04-11T01:35:34.476Z,4.28
2019-04-11T01:38:04.061Z,4.26
2019-04-11T01:40:33.912Z,4.28
2019-04-11T01:43:03.939Z,4.33
2019-04-11T01:45:33.732Z,4.23
2019-04-11T01:48:05.003Z,4.25
2019-04-11T01:50:35.299Z,4.27
2019-04-11T01:53:05.020Z,4.15
2019-04-11T01:55:34.946Z,4.24
2019-04-11T01:58:04.685Z,4.27
2019-04-11T02:00:36.511Z,4.16
2019-04-11T02:03:08.972Z,4.03
2019-04-11T02:05:38.702Z,3.98
2019-04-11T02:08:09.262Z,4.01
2019-04-11T02:10:39.119Z,4.01
2019-04-11T02:13:08.287Z,3.96
2019-04-11T02:15:38.700Z,3.89
2019-04-11T02:18:07.963Z,3.85
2019-04-11T02:20:37.412Z,3.78
2019-04-11T02:23:06.853Z,3.92
2019-04-11T02:25:40.869Z,3.85
2019-04-11T02:28:12.631Z,3.90
2019-04-11T02:30:47.656Z,3.78
2019-04-11T02:33:18.172Z,3.76
2019-04-11T02:35:49.017Z,3.84
2019-04-11T02:38:19.024Z,3.87
2019-04-11T02:40:49.940Z,3.83
2019-04-11T02:43:20.473Z,3.80
2019-04-11T02:45:58.260Z,3.63
2019-04-11T02:48:21.386Z,3.66
2019-04-11T02:50:50.895Z,3.63
2019-04-11T02:53:21.279Z,3.64
2019-04-11T02:55:54.734Z,3.68
2019-04-11T02:58:27.326Z,3.70
2019-04-11T03:00:59.405Z,3.61
2019-04-11T03:03:29.825Z,3.56
2019-04-11T03:06:02.153Z,3.62
2019-04-11T03:08:34.199Z,3.41
2019-04-11T03:11:05.182Z,3.41
2019-04-11T03:13:35.324Z,3.41
2019-04-11T03:16:23.279Z,3.37
2019-04-11T03:18:54.986Z,3.42
2019-04-11T03:21:13.802Z,3.41
2019-04-11T03:23:41.406Z,3.41
2019-04-11T03:26:12.404Z,3.39
2019-04-11T03:28:47.485Z,3.32
2019-04-11T03:31:50.630Z,3.29
2019-04-11T03:34:51.896Z,3.32
2019-04-11T03:37:08.546Z,3.24
2019-04-11T03:39:11.346Z,3.24
2019-04-11T03:41:38.744Z,3.29
2019-04-11T03:44:01.892Z,3.13
2019-04-11T03:46:39.670Z,3.14
2019-04-11T03:49:03.912Z,3.19
2019-04-11T03:51:26.290Z,3.12
2019-04-11T03:53:56.974Z,3.13
2019-04-11T03:56:28.721Z,3.18
2019-04-11T03:58:58.543Z,3.18
2019-04-11T04:01:29.487Z,3.04
2019-04-11T04:04:00.469Z,3.08
2019-04-11T04:06:31.054Z,3.02
2019-04-11T04:09:02.595Z,3.02
2019-04-11T04:11:33.819Z,2.95
2019-04-11T04:14:05.003Z,3.01
2019-04-11T04:16:41.303Z,2.98
2019-04-11T04:19:14.758Z,2.91
2019-04-11T04:21:43.526Z,2.89
2019-04-11T04:24:19.113Z,2.89
2019-04-11T04:26:50.297Z,2.81
2019-04-11T04:29:21.858Z,2.70
2019-04-11T04:31:53.247Z,2.73
2019-04-11T04:34:23.924Z,2.72
2019-04-11T04:36:55.568Z,2.75
2019-04-11T04:39:29.231Z,2.67
2019-04-11T04:42:08.188Z,2.66
2019-04-11T04:44:31.727Z,2.78
2019-04-11T04:47:15.615Z,2.70
2019-04-11T04:49:34.550Z,2.75
2019-04-11T04:52:05.924Z,2.70
2019-04-11T04:54:36.517Z,2.65
2019-04-11T04:57:08.524Z,2.74
2019-04-11T04:59:39.963Z,2.80
2019-04-11T05:02:11.001Z,2.95
2019-04-11T05:04:40.487Z,3.21
2019-04-11T05:07:11.756Z,3.30
2019-04-11T05:09:42.639Z,3.49
2019-04-11T05:12:12.189Z,3.52
2019-04-11T05:14:43.319Z,3.32
2019-04-11T05:17:12.947Z,3.48
2019-04-11T05:19:42.454Z,4.05
2019-04-11T05:22:12.608Z,4.41
2019-04-11T05:24:43.347Z,4.21
2019-04-11T05:27:12.966Z,4.54
2019-04-11T05:29:43.620Z,4.60
2019-04-11T05:32:13.511Z,4.48
2019-04-11T05:34:43.516Z,4.86
2019-04-11T05:37:15.304Z,5.43
2019-04-11T05:39:44.990Z,5.43
2019-04-11T05:42:17.798Z,5.76
2019-04-11T05:44:45.607Z,6.62
2019-04-11T05:47:18.435Z,6.86
2019-04-11T05:49:48.082Z,6.91
2019-04-11T05:52:17.855Z,6.93
2019-04-11T05:54:50.901Z,6.95
2019-04-11T05:57:23.745Z,7.27
2019-04-11T05:59:54.413Z,7.67
2019-04-11T06:02:25.014Z,7.46
2019-04-11T06:04:57.881Z,8.29
2019-04-11T06:07:29.341Z,8.79
2019-04-11T06:10:00.723Z,8.99
2019-04-11T06:12:33.570Z,9.15
2019-04-11T06:15:04.598Z,9.63
2019-04-11T06:17:34.349Z,9.33
2019-04-11T06:20:08.605Z,9.86
2019-04-11T06:22:40.155Z,9.47
2019-04-11T06:25:11.583Z,9.90
2019-04-11T06:27:43.321Z,10.27
2019-04-11T06:30:15.907Z,10.18
2019-04-11T06:32:47.820Z,10.15
2019-04-11T06:35:19.925Z,10.08
2019-04-11T06:37:49.912Z,10.19
2019-04-11T06:40:21.141Z,10.18
2019-04-11T06:42:52.323Z,10.13
2019-04-11T06:45:23.795Z,11.17
2019-04-11T06:47:55.130Z,11.43
2019-04-11T06:50:27.031Z,11.72
2019-04-11T06:52:56.713Z,11.71
2019-04-11T06:55:28.980Z,11.54
2019-04-11T06:58:00.514Z,10.95
2019-04-11T07:00:31.526Z,11.88
2019-04-11T07:03:03.529Z,12.55
2019-04-11T07:05:35.945Z,12.05
2019-04-11T07:08:07.651Z,11.67
2019-04-11T07:10:39.036Z,10.43
2019-04-11T07:13:10.245Z,11.00
2019-04-11T07:15:42.030Z,11.20
2019-04-11T07:18:16.568Z,11.15
2019-04-11T07:20:50.497Z,11.25
2019-04-11T07:23:22.258Z,10.97
2019-04-11T07:25:53.891Z,11.34
2019-04-11T07:28:25.352Z,11.13
2019-04-11T07:31:00.363Z,9.63
2019-04-11T07:33:31.196Z,8.96
2019-04-11T07:36:03.891Z,8.05
2019-04-11T07:38:35.012Z,8.83
2019-04-11T07:41:06.592Z,9.90
2019-04-11T07:43:36.184Z,10.33
2019-04-11T07:46:07.138Z,11.14
2019-04-11T07:48:38.103Z,11.99
2019-04-11T07:51:09.429Z,11.21
2019-04-11T07:53:40.396Z,8.22
2019-04-11T07:56:09.958Z,8.22
2019-04-11T07:58:39.839Z,8.14
2019-04-11T08:01:10.466Z,8.31
2019-04-11T08:03:41.748Z,8.42
2019-04-11T08:06:13.373Z,8.90
2019-04-11T08:08:44.470Z,8.23
2019-04-11T08:11:17.910Z,9.00
2019-04-11T08:13:48.529Z,8.44
2019-04-11T08:16:22.632Z,8.62
2019-04-11T08:18:53.914Z,8.33
2019-04-11T08:21:26.082Z,9.72
2019-04-11T08:24:00.360Z,9.67
2019-04-11T08:26:30.449Z,10.34
2019-04-11T08:29:07.505Z,10.36
2019-04-11T08:31:32.881Z,10.40
2019-04-11T08:34:02.799Z,9.06
2019-04-11T08:36:33.948Z,10.28
2019-04-11T08:39:04.773Z,10.86
2019-04-11T08:41:35.949Z,10.02
2019-04-11T08:44:06.160Z,10.48
2019-04-11T08:46:37.305Z,10.83
2019-04-11T08:49:11.060Z,10.79
2019-04-11T08:51:41.892Z,11.09
2019-04-11T08:54:13.284Z,10.71
2019-04-11T08:56:43.487Z,9.98
2019-04-11T08:59:18.529Z,9.98
2019-04-11T09:01:48.528Z,10.04
2019-04-11T09:04:19.437Z,9.82
2019-04-11T09:06:49.954Z,9.68
2019-04-11T09:09:39.683Z,9.72
2019-04-11T09:12:12.084Z,9.86
2019-04-11T09:14:44.347Z,8.85
2019-04-11T09:17:16.463Z,8.85
2019-04-11T09:19:45.870Z,8.73
2019-04-11T09:22:20.485Z,9.07
2019-04-11T09:24:51.630Z,8.92
2019-04-11T09:27:24.885Z,8.42
2019-04-11T09:29:56.648Z,8.92
2019-04-11T09:32:33.951Z,8.72
2019-04-11T09:35:06.227Z,8.92
2019-04-11T09:37:36.111Z,8.94
2019-04-11T09:40:11.945Z,8.91
2019-04-11T09:42:43.177Z,8.68
2019-04-11T09:45:14.432Z,8.55
2019-04-11T09:47:51.932Z,8.63
2019-04-11T09:50:24.628Z,8.75
2019-04-11T09:52:55.962Z,8.94
2019-04-11T09:55:26.535Z,8.86
2019-04-11T09:57:58.199Z,8.61
2019-04-11T10:00:29.039Z,8.92
2019-04-11T10:03:01.723Z,8.86
2019-04-11T10:05:34.169Z,8.89
2019-04-11T10:08:06.495Z,8.93
2019-04-11T10:10:40.726Z,8.92
2019-04-11T10:13:10.899Z,8.74
2019-04-11T10:15:43.123Z,9.15
2019-04-11T10:18:22.974Z,9.15
2019-04-11T10:20:45.717Z,9.19
2019-04-11T10:23:16.860Z,9.03
2019-04-11T10:25:47.623Z,9.00
2019-04-11T10:28:17.504Z,8.74
2019-04-11T10:30:48.861Z,9.04
2019-04-11T10:33:20.462Z,9.09
2019-04-11T10:35:51.491Z,8.97
2019-04-11T10:38:22.500Z,8.89
2019-04-11T10:40:54.526Z,9.03
2019-04-11T10:43:24.567Z,9.20
2019-04-11T10:45:55.790Z,9.42
2019-04-11T10:48:36.845Z,9.36
2019-04-11T10:50:58.282Z,9.51
2019-04-11T10:53:27.936Z,9.40
2019-04-11T10:56:00.012Z,9.70
2019-04-11T10:58:31.220Z,9.65
2019-04-11T11:01:02.375Z,9.49
2019-04-11T11:03:34.069Z,9.68
2019-04-11T11:06:05.421Z,9.80
2019-04-11T11:08:37.651Z,9.78
2019-04-11T11:11:13.261Z,9.99
2019-04-11T11:13:43.956Z,10.13
2019-04-11T11:16:13.908Z,9.88
2019-04-11T11:19:15.609Z,9.97
2019-04-11T11:21:17.628Z,9.93
2019-04-11T11:23:49.620Z,10.08
2019-04-11T11:26:25.698Z,9.99
2019-04-11T11:28:56.808Z,10.09
2019-04-11T11:31:27.986Z,10.02
2019-04-11T11:33:58.831Z,9.81
2019-04-11T11:36:33.121Z,10.04
2019-04-11T11:39:01.173Z,10.33
2019-04-11T11:41:32.508Z,10.22
2019-04-11T11:44:01.997Z,10.19
2019-04-11T11:46:34.156Z,9.92
2019-04-11T11:49:05.929Z,9.92
2019-04-11T11:51:37.547Z,10.18
2019-04-11T11:54:08.180Z,10.25
2019-04-11T11:56:40.239Z,10.16
2019-04-11T11:59:11.561Z,10.17
2019-04-11T12:01:46.506Z,10.03
2019-04-11T12:04:16.732Z,9.69
2019-04-11T12:06:48.193Z,10.10
2019-04-11T12:09:18.234Z,10.14
2019-04-11T12:11:52.445Z,10.46
2019-04-11T12:14:20.638Z,10.46
2019-04-11T12:17:01.199Z,10.01
2019-04-11T12:19:40.837Z,10.27
2019-04-11T12:22:00.015Z,10.47
2019-04-11T12:24:32.230Z,10.60
2019-04-11T12:27:04.486Z,10.62
2019-04-11T12:29:38.677Z,10.68
2019-04-11T12:32:10.349Z,10.24
2019-04-11T12:34:43.905Z,10.43
2019-04-11T12:37:17.638Z,10.50
2019-04-11T12:39:49.982Z,10.45
2019-04-11T12:42:23.760Z,10.66
2019-04-11T12:44:59.736Z,10.61
2019-04-11T12:47:28.942Z,10.63
2019-04-11T12:50:00.123Z,10.72
2019-04-11T12:52:31.247Z,10.71
2019-04-11T12:55:05.236Z,10.80
2019-04-11T12:57:36.398Z,10.65
2019-04-11T13:00:10.130Z,10.55
2019-04-11T13:02:41.260Z,10.57
2019-04-11T13:05:12.571Z,10.64
2019-04-11T13:07:47.281Z,10.65
2019-04-11T13:10:19.343Z,10.83
2019-04-11T13:12:51.067Z,10.95
2019-04-11T13:15:23.780Z,10.98
2019-04-11T13:17:57.044Z,10.98
2019-04-11T13:20:30.875Z,10.98
2019-04-11T13:23:02.033Z,11.05
2019-04-11T13:25:36.875Z,10.99
2019-04-11T13:28:06.490Z,10.96
2019-04-11T13:30:37.727Z,10.98
2019-04-11T13:33:08.669Z,10.91
2019-04-11T13:35:39.928Z,11.21
2019-04-11T13:38:11.143Z,11.17
2019-04-11T13:40:42.399Z,10.90
2019-04-11T13:43:16.190Z,10.97
2019-04-11T13:45:47.434Z,11.23
2019-04-11T13:48:18.713Z,11.20
2019-04-11T13:50:49.884Z,11.38
2019-04-11T13:53:21.040Z,11.16
2019-04-11T13:55:51.118Z,11.03
2019-04-11T13:58:22.716Z,11.18
2019-04-11T14:00:52.664Z,11.08
2019-04-11T14:03:24.062Z,11.08
2019-04-11T14:05:53.093Z,11.20
2019-04-11T14:08:23.991Z,11.24
2019-04-11T14:10:55.233Z,11.16
2019-04-11T14:13:26.235Z,10.99
2019-04-11T14:15:57.458Z,10.78
2019-04-11T14:18:28.646Z,11.12
2019-04-11T14:21:00.238Z,11.32
2019-04-11T14:23:31.549Z,11.46
2019-04-11T14:26:02.498Z,11.29
2019-04-11T14:28:33.818Z,11.17
2019-04-11T14:31:10.919Z,11.20
2019-04-11T14:33:42.122Z,11.23
2019-04-11T14:36:13.331Z,11.31
2019-04-11T14:38:47.699Z,11.13
2019-04-11T14:41:17.437Z,11.10
2019-04-11T14:43:48.319Z,11.10
2019-04-11T14:46:19.681Z,10.97
2019-04-11T14:48:50.939Z,11.03
2019-04-11T14:51:23.836Z,10.97
2019-04-11T14:53:55.354Z,10.99
2019-04-11T14:56:27.155Z,10.96
2019-04-11T14:58:58.539Z,10.93
2019-04-11T15:01:29.498Z,11.06
2019-04-11T15:03:58.516Z,10.77
2019-04-11T15:06:31.329Z,10.88
2019-04-11T15:09:02.831Z,10.75
2019-04-11T15:11:32.074Z,10.91
2019-04-11T15:14:01.368Z,11.05
2019-04-11T15:16:32.502Z,11.11
2019-04-11T15:19:01.800Z,11.21
2019-04-11T15:21:36.392Z,11.09
2019-04-11T15:24:07.429Z,11.02
2019-04-11T15:26:38.900Z,10.98
2019-04-11T15:29:13.556Z,10.99
2019-04-11T15:31:43.741Z,10.86
2019-04-11T15:34:17.698Z,10.94
2019-04-11T15:36:57.736Z,11.08
2019-04-11T15:39:30.108Z,11.06
2019-04-11T15:42:02.454Z,10.90
2019-04-11T15:44:32.331Z,10.80
2019-04-11T15:47:03.353Z,10.66
2019-04-11T15:49:34.525Z,10.87
2019-04-11T15:52:06.857Z,10.95
2019-04-11T15:54:38.335Z,10.96
2019-04-11T15:57:12.218Z,10.87
2019-04-11T15:59:44.042Z,10.74
2019-04-11T16:02:13.838Z,10.54
2019-04-11T16:04:46.951Z,10.74
2019-04-11T16:07:20.918Z,10.78
2019-04-11T16:09:53.741Z,10.84
2019-04-11T16:12:25.036Z,10.66
2019-04-11T16:15:00.631Z,10.56
2019-04-11T16:17:31.974Z,10.48
2019-04-11T16:20:02.049Z,10.48
2019-04-11T16:22:33.306Z,10.48
2019-04-11T16:25:04.740Z,10.58
2019-04-11T16:27:36.638Z,10.46
2019-04-11T16:30:10.161Z,10.26
2019-04-11T16:32:42.155Z,10.35
2019-04-11T16:35:14.092Z,10.42
2019-04-11T16:37:47.683Z,10.35
2019-04-11T16:40:18.033Z,10.28
2019-04-11T16:42:47.851Z,10.23
2019-04-11T16:45:18.727Z,10.20
2019-04-11T16:47:53.758Z,10.13
2019-04-11T16:50:24.114Z,10.18
2019-04-11T16:52:54.218Z,10.11
2019-04-11T16:55:23.402Z,10.09
2019-04-11T16:57:52.875Z,10.03
2019-04-11T17:00:22.459Z,9.78
2019-04-11T17:02:54.715Z,9.79
2019-04-11T17:05:24.032Z,9.91
2019-04-11T17:07:56.189Z,9.96
2019-04-11T17:10:28.365Z,9.85
2019-04-11T17:12:57.933Z,9.80
2019-04-11T17:15:30.412Z,9.72
2019-04-11T17:17:59.725Z,9.68
2019-04-11T17:20:29.705Z,9.63
2019-04-11T17:23:00.556Z,9.65
2019-04-11T17:25:30.170Z,9.56
2019-04-11T17:27:59.749Z,9.50
2019-04-11T17:30:29.439Z,9.50
2019-04-11T17:32:59.627Z,9.48
2019-04-11T17:35:31.575Z,9.41
2019-04-11T17:38:03.397Z,9.35
2019-04-11T17:40:31.565Z,9.33
2019-04-11T17:43:01.042Z,9.26
2019-04-11T17:45:30.556Z,9.13
2019-04-11T17:48:00.323Z,9.06
2019-04-11T17:50:29.935Z,9.10
2019-04-11T17:52:59.922Z,9.03
2019-04-11T17:55:29.523Z,8.98
2019-04-11T17:57:59.005Z,8.94
2019-04-11T18:00:30.696Z,8.87
2019-04-11T18:03:01.900Z,8.82
2019-04-11T18:05:31.702Z,8.69
2019-04-11T18:08:01.208Z,8.60
2019-04-11T18:10:30.760Z,8.59
2019-04-11T18:13:00.564Z,8.57
2019-04-11T18:15:31.162Z,8.45
2019-04-11T18:18:03.094Z,8.46
2019-04-11T18:20:32.326Z,8.38
2019-04-11T18:23:01.766Z,8.35
2019-04-11T18:25:31.289Z,8.31
2019-04-11T18:28:00.848Z,8.20
2019-04-11T18:30:30.570Z,8.11
2019-04-11T18:32:59.831Z,8.01
2019-04-11T18:35:31.966Z,8.00
2019-04-11T18:38:02.114Z,7.98
2019-04-11T18:40:31.799Z,7.97
2019-04-11T18:43:01.209Z,7.82
2019-04-11T18:45:30.759Z,7.88
2019-04-11T18:48:00.469Z,7.80
2019-04-11T18:50:30.560Z,7.68
2019-04-11T18:53:00.700Z,7.53
2019-04-11T18:55:30.620Z,7.47
2019-04-11T18:58:04.734Z,7.46
2019-04-11T19:00:35.859Z,7.45
2019-04-11T19:03:08.071Z,7.38
2019-04-11T19:05:42.734Z,7.34
2019-04-11T19:08:13.692Z,7.29
2019-04-11T19:10:45.786Z,7.23
2019-04-11T19:13:17.697Z,7.19
2019-04-11T19:15:48.345Z,7.13
2019-04-11T19:18:19.694Z,6.99
2019-04-11T19:20:50.920Z,6.88
2019-04-11T19:23:27.939Z,6.89
2019-04-11T19:25:58.634Z,6.74
2019-04-11T19:28:29.316Z,6.74
2019-04-11T19:31:00.111Z,6.64
2019-04-11T19:33:34.010Z,6.57
2019-04-11T19:36:03.151Z,6.53
2019-04-11T19:38:36.462Z,6.55
2019-04-11T19:41:09.124Z,6.49
2019-04-11T19:43:40.914Z,6.40
2019-04-11T19:46:13.262Z,6.35
2019-04-11T19:48:43.447Z,6.33
2019-04-11T19:51:14.728Z,6.28
2019-04-11T19:53:44.910Z,6.20
2019-04-11T19:56:16.395Z,6.11
2019-04-11T19:58:46.422Z,6.15
2019-04-11T20:01:16.116Z,6.11
2019-04-11T20:03:45.474Z,6.08
2019-04-11T20:06:14.728Z,6.05
2019-04-11T20:08:44.274Z,6.05
2019-04-11T20:11:13.792Z,5.85
2019-04-11T20:13:43.242Z,5.80
2019-04-11T20:16:13.272Z,5.74
2019-04-11T20:18:50.926Z,5.75
2019-04-11T20:21:14.152Z,5.74
2019-04-11T20:23:43.623Z,5.67
2019-04-11T20:26:13.183Z,5.70
2019-04-11T20:28:43.537Z,5.71
2019-04-11T20:31:13.604Z,5.61
2019-04-11T20:33:43.758Z,5.63
2019-04-11T20:36:13.834Z,5.55
2019-04-11T20:38:44.747Z,5.47
2019-04-11T20:41:16.820Z,5.45
2019-04-11T20:43:47.019Z,5.41
2019-04-11T20:46:16.754Z,5.38
2019-04-11T20:48:46.280Z,5.30
2019-04-11T20:51:17.575Z,5.35
2019-04-11T20:53:47.855Z,5.32
2019-04-11T20:56:24.043Z,5.25
2019-04-11T20:58:49.174Z,5.24
2019-04-11T21:01:19.196Z,5.33
2019-04-11T21:03:49.327Z,5.26
2019-04-11T21:06:19.537Z,5.14
2019-04-11T21:08:50.035Z,5.14
2019-04-11T21:11:20.441Z,5.06
2019-04-11T21:13:50.313Z,5.02
2019-04-11T21:16:20.605Z,5.10
2019-04-11T21:18:50.837Z,5.10
2019-04-11T21:21:22.848Z,5.21
2019-04-11T21:23:52.205Z,5.15
2019-04-11T21:26:22.472Z,5.08
2019-04-11T21:28:52.657Z,4.93
2019-04-11T21:31:23.186Z,4.97
2019-04-11T21:33:53.554Z,4.92
2019-04-11T21:36:22.829Z,4.92
2019-04-11T21:38:53.042Z,4.85
2019-04-11T21:41:22.668Z,4.78
2019-04-11T21:43:52.335Z,4.65
2019-04-11T21:46:22.263Z,4.76
2019-04-11T21:48:52.381Z,4.75
2019-04-11T21:51:21.974Z,4.79
2019-04-11T21:53:51.695Z,4.75
2019-04-11T21:56:22.208Z,4.68
2019-04-11T21:58:52.395Z,4.56
2019-04-11T22:01:24.847Z,4.63
2019-04-11T22:03:57.733Z,4.56
2019-04-11T22:06:30.614Z,4.48
2019-04-11T22:08:59.983Z,4.45
2019-04-11T22:11:30.168Z,4.46
2019-04-11T22:14:00.243Z,4.36
2019-04-11T22:16:29.979Z,4.23
2019-04-11T22:19:00.264Z,4.20
2019-04-11T22:21:29.841Z,4.09
2019-04-11T22:23:59.392Z,4.08
2019-04-11T22:26:29.075Z,4.13
2019-04-11T22:29:00.708Z,4.11
2019-04-11T22:31:30.301Z,4.04
2019-04-11T22:34:01.539Z,4.10
2019-04-11T22:36:31.212Z,4.12
2019-04-11T22:39:01.580Z,3.97
2019-04-11T22:41:31.133Z,4.12
2019-04-11T22:44:01.731Z,4.06
2019-04-11T22:46:37.577Z,4.00
2019-04-11T22:49:08.676Z,3.89
2019-04-11T22:51:36.798Z,3.75
2019-04-11T22:54:06.401Z,3.76
2019-04-11T22:56:36.170Z,3.84
2019-04-11T22:59:05.820Z,3.83
2019-04-11T23:01:35.250Z,3.75
2019-04-11T23:04:05.730Z,3.81
2019-04-11T23:06:35.327Z,3.72
2019-04-11T23:09:06.555Z,3.66
2019-04-11T23:11:36.087Z,3.60
2019-04-11T23:14:05.635Z,3.52
2019-04-11T23:16:34.933Z,3.50
2019-04-11T23:19:04.465Z,3.41
2019-04-11T23:21:34.009Z,3.49
2019-04-11T23:24:11.471Z,3.51
2019-04-11T23:26:34.522Z,3.41
2019-04-11T23:29:04.124Z,3.32
2019-04-11T23:31:33.380Z,3.38
2019-04-11T23:34:02.949Z,3.37
2019-04-11T23:36:32.577Z,3.34
2019-04-11T23:39:01.987Z,3.42
2019-04-11T23:41:31.602Z,3.39
2019-04-11T23:44:00.850Z,3.29
2019-04-11T23:46:30.491Z,3.17
2019-04-11T23:49:00.014Z,3.10
2019-04-11T23:51:29.554Z,3.19
2019-04-11T23:53:59.865Z,3.19
2019-04-11T23:56:30.589Z,3.10
2019-04-11T23:59:02.085Z,3.03
